Time;durP1;ratioP1;P1;durP2;ratioP2;P2;SDS_P1;SDS_P2;PMS_P1;PMS_P2;Temp;Humidity;BMP_temperature;BMP_pressure;BME280_temperature;BME280_humidity;BME280_pressure;Samples;Min_cycle;Max_cycle;Signal;HPM_P1;HPM_P2
2022/06/20 00:00:05;;;;;;;2.10;1.67;;;;;;;;;;5017636;28;20255;-59
2022/06/20 00:02:33;;;;;;;1.63;1.52;;;;;;;;;;5013827;28;20212;-59
2022/06/20 00:05:02;;;;;;;1.50;1.40;;;;;;;;;;5014665;28;20210;-59
2022/06/20 00:07:29;;;;;;;3.40;1.35;;;;;;;;;;5018163;28;20216;-59
2022/06/20 00:09:56;;;;;;;1.90;1.50;;;;;;;;;;5021311;28;20698;-59
2022/06/20 00:12:24;;;;;;;4.20;1.55;;;;;;;;;;5013638;28;20205;-59
2022/06/20 00:14:53;;;;;;;4.88;1.85;;;;;;;;;;5006140;28;20217;-59
2022/06/20 00:17:20;;;;;;;2.30;1.80;;;;;;;;;;5014316;28;20692;-59
2022/06/20 00:19:49;;;;;;;6.20;1.50;;;;;;;;;;5016825;28;20224;-59
2022/06/20 00:22:16;;;;;;;4.30;1.77;;;;;;;;;;5018158;28;20646;-59
2022/06/20 00:24:43;;;;;;;3.65;1.42;;;;;;;;;;5016513;28;20614;-59
2022/06/20 00:27:13;;;;;;;3.13;1.40;;;;;;;;;;5017766;28;20236;-59
2022/06/20 00:29:41;;;;;;;2.60;1.30;;;;;;;;;;5018399;28;20231;-59
2022/06/20 00:32:09;;;;;;;2.75;1.50;;;;;;;;;;5017427;28;20211;-59
2022/06/20 00:34:36;;;;;;;3.45;1.52;;;;;;;;;;5021521;28;20216;-59
2022/06/20 00:37:05;;;;;;;2.13;1.25;;;;;;;;;;5007245;28;20589;-59
2022/06/20 00:39:33;;;;;;;5.63;1.25;;;;;;;;;;5011142;28;20604;-59
2022/06/20 00:42:01;;;;;;;2.40;1.60;;;;;;;;;;5013169;28;20217;-59
2022/06/20 00:44:30;;;;;;;4.82;1.48;;;;;;;;;;5012656;28;20207;-59
2022/06/20 00:46:58;;;;;;;1.33;1.23;;;;;;;;;;5008271;28;20259;-59
2022/06/20 00:52:16;;;;;;;1.20;1.20;;;;;;;;;;5005512;28;20208;-59
2022/06/20 00:54:47;;;;;;;1.50;1.40;;;;;;;;;;5008881;28;20205;-59
2022/06/20 00:57:16;;;;;;;1.23;1.02;;;;;;;;;;5012940;28;20217;-59
2022/06/20 00:59:46;;;;;;;1.50;1.40;;;;;;;;;;5012249;28;20209;-59
2022/06/20 01:02:18;;;;;;;1.40;1.40;;;;;;;;;;5013137;28;21158;-59
2022/06/20 01:04:47;;;;;;;2.85;1.42;;;;;;;;;;5008793;28;20209;-60
2022/06/20 01:07:18;;;;;;;4.13;1.55;;;;;;;;;;5011640;28;20645;-59
2022/06/20 01:09:47;;;;;;;1.60;1.20;;;;;;;;;;5012108;28;20229;-59
2022/06/20 01:12:17;;;;;;;1.70;1.42;;;;;;;;;;5011752;28;20209;-59
2022/06/20 01:14:44;;;;;;;1.98;1.77;;;;;;;;;;5012338;28;20220;-59
2022/06/20 01:17:16;;;;;;;2.75;1.60;;;;;;;;;;5012111;28;20205;-61
2022/06/20 01:19:49;;;;;;;1.67;1.58;;;;;;;;;;5009136;28;20201;-59
2022/06/20 01:22:24;;;;;;;1.42;1.35;;;;;;;;;;5006693;28;20213;-59
2022/06/20 01:24:57;;;;;;;4.35;1.50;;;;;;;;;;5008026;28;20278;-59
2022/06/20 01:27:28;;;;;;;4.88;1.80;;;;;;;;;;5007734;28;20240;-59
2022/06/20 01:29:55;;;;;;;1.92;1.50;;;;;;;;;;5010958;28;20228;-60
2022/06/20 01:32:22;;;;;;;2.95;1.35;;;;;;;;;;5010585;28;20204;-60
2022/06/20 01:34:49;;;;;;;5.47;1.45;;;;;;;;;;5009531;28;20213;-60
2022/06/20 01:37:26;;;;;;;3.05;1.90;;;;;;;;;;5010149;28;20639;-60
2022/06/20 01:39:54;;;;;;;2.30;1.42;;;;;;;;;;5010341;28;20189;-60
2022/06/20 01:42:20;;;;;;;3.17;2.10;;;;;;;;;;5009706;28;20592;-61
2022/06/20 01:44:50;;;;;;;1.75;1.45;;;;;;;;;;5009304;28;20228;-60
2022/06/20 01:47:17;;;;;;;1.73;1.63;;;;;;;;;;5009755;28;20771;-60
2022/06/20 01:49:46;;;;;;;4.43;2.10;;;;;;;;;;5010265;28;20718;-60
2022/06/20 01:52:15;;;;;;;2.47;1.45;;;;;;;;;;5010069;28;20236;-59
2022/06/20 01:54:44;;;;;;;3.92;1.90;;;;;;;;;;5008298;28;20208;-60
2022/06/20 01:57:12;;;;;;;2.90;1.58;;;;;;;;;;5008466;28;20228;-60
2022/06/20 01:59:43;;;;;;;1.88;1.63;;;;;;;;;;5010378;28;20255;-59
2022/06/20 02:02:11;;;;;;;1.25;1.25;;;;;;;;;;5009952;28;20223;-60
2022/06/20 02:04:39;;;;;;;3.50;1.60;;;;;;;;;;5009586;28;20660;-61
2022/06/20 02:07:08;;;;;;;2.28;1.50;;;;;;;;;;5008271;28;20209;-63
2022/06/20 02:09:35;;;;;;;3.83;2.03;;;;;;;;;;5006705;28;20706;-64
2022/06/20 02:12:03;;;;;;;6.63;2.10;;;;;;;;;;5009090;28;20741;-63
2022/06/20 02:14:32;;;;;;;5.80;1.42;;;;;;;;;;5006213;28;20213;-63
2022/06/20 02:17:01;;;;;;;2.45;1.77;;;;;;;;;;5007773;28;20209;-63
2022/06/20 02:19:31;;;;;;;2.65;1.10;;;;;;;;;;5009586;28;20197;-64
2022/06/20 02:21:59;;;;;;;1.95;1.70;;;;;;;;;;5009539;28;20224;-63
2022/06/20 02:24:28;;;;;;;3.20;1.50;;;;;;;;;;5009775;28;20213;-63
2022/06/20 02:27:01;;;;;;;2.08;1.73;;;;;;;;;;5005814;28;20247;-63
2022/06/20 02:29:28;;;;;;;3.42;1.48;;;;;;;;;;5009080;28;20232;-63
2022/06/20 02:31:57;;;;;;;5.50;3.00;;;;;;;;;;5009849;28;20211;-63
2022/06/20 02:34:26;;;;;;;1.55;1.42;;;;;;;;;;5008905;28;20208;-63
2022/06/20 02:36:55;;;;;;;2.17;1.55;;;;;;;;;;5008748;28;20347;-63
2022/06/20 02:39:22;;;;;;;3.00;1.73;;;;;;;;;;5007770;28;20376;-63
2022/06/20 02:41:52;;;;;;;2.30;1.60;;;;;;;;;;5009374;28;20225;-63
2022/06/20 02:44:20;;;;;;;2.30;1.90;;;;;;;;;;5008833;28;20205;-64
2022/06/20 02:46:48;;;;;;;1.08;1.08;;;;;;;;;;5010058;28;20209;-64
2022/06/20 02:49:16;;;;;;;1.42;1.40;;;;;;;;;;5010433;28;20320;-63
2022/06/20 02:51:47;;;;;;;3.33;2.05;;;;;;;;;;5010003;28;20213;-63
2022/06/20 02:54:16;;;;;;;2.75;2.55;;;;;;;;;;5010679;28;20228;-63
2022/06/20 02:56:45;;;;;;;5.18;2.28;;;;;;;;;;5010187;28;20201;-63
2022/06/20 02:59:15;;;;;;;6.70;2.90;;;;;;;;;;5010310;28;20255;-63
2022/06/20 03:01:44;;;;;;;4.75;2.85;;;;;;;;;;5010082;28;20238;-63
2022/06/20 03:04:12;;;;;;;5.55;2.55;;;;;;;;;;5009646;28;20667;-63
2022/06/20 03:06:42;;;;;;;3.05;2.75;;;;;;;;;;5007597;28;20789;-62
2022/06/20 03:09:11;;;;;;;4.03;2.42;;;;;;;;;;5010030;28;20205;-63
2022/06/20 03:11:40;;;;;;;2.72;2.47;;;;;;;;;;5009815;28;20205;-63
2022/06/20 03:14:10;;;;;;;3.42;2.15;;;;;;;;;;5010334;28;20255;-63
2022/06/20 03:16:39;;;;;;;2.33;2.13;;;;;;;;;;5009622;28;20209;-63
2022/06/20 03:19:09;;;;;;;3.03;1.83;;;;;;;;;;5010490;28;20213;-63
2022/06/20 03:21:38;;;;;;;4.80;2.00;;;;;;;;;;5009453;28;20201;-63
2022/06/20 03:24:06;;;;;;;1.95;1.85;;;;;;;;;;5009941;28;20209;-63
2022/06/20 03:26:33;;;;;;;1.98;1.65;;;;;;;;;;5004929;28;20248;-63
2022/06/20 03:29:02;;;;;;;1.73;1.60;;;;;;;;;;5009284;28;20321;-63
2022/06/20 03:31:29;;;;;;;3.03;2.33;;;;;;;;;;5008655;28;20724;-63
2022/06/20 03:33:56;;;;;;;1.98;1.85;;;;;;;;;;5008262;28;20205;-63
2022/06/20 03:36:25;;;;;;;1.88;1.77;;;;;;;;;;5009205;28;20267;-63
2022/06/20 03:38:53;;;;;;;3.55;1.85;;;;;;;;;;5009470;28;20205;-63
2022/06/20 03:41:21;;;;;;;2.75;1.92;;;;;;;;;;5007470;28;20293;-63
2022/06/20 03:43:51;;;;;;;2.28;1.90;;;;;;;;;;5008005;28;20317;-63
2022/06/20 03:46:21;;;;;;;1.95;1.48;;;;;;;;;;5008724;28;20211;-63
2022/06/20 03:48:52;;;;;;;1.90;1.80;;;;;;;;;;5007781;28;20287;-63
2022/06/20 03:51:22;;;;;;;1.67;1.67;;;;;;;;;;5006530;28;20233;-63
2022/06/20 03:53:53;;;;;;;1.40;1.40;;;;;;;;;;5007514;28;20225;-63
2022/06/20 03:56:23;;;;;;;1.60;1.60;;;;;;;;;;5009581;28;20247;-63
2022/06/20 03:58:52;;;;;;;4.38;1.60;;;;;;;;;;5007899;28;20987;-63
2022/06/20 04:01:23;;;;;;;3.30;1.30;;;;;;;;;;5006770;28;20205;-64
2022/06/20 04:03:51;;;;;;;2.15;1.50;;;;;;;;;;5007550;28;20212;-63
2022/06/20 04:06:20;;;;;;;1.52;1.27;;;;;;;;;;5007030;28;20696;-63
2022/06/20 04:11:37;;;;;;;2.10;1.10;;;;;;;;;;5003664;28;20235;-64
2022/06/20 04:14:07;;;;;;;1.40;1.27;;;;;;;;;;5006780;28;20208;-63
2022/06/20 04:16:38;;;;;;;3.70;1.40;;;;;;;;;;5006886;28;20205;-63
2022/06/20 04:19:08;;;;;;;2.63;1.40;;;;;;;;;;5003646;28;20236;-63
2022/06/20 04:21:37;;;;;;;1.10;1.10;;;;;;;;;;5006955;28;20587;-63
2022/06/20 04:24:06;;;;;;;2.70;1.25;;;;;;;;;;5007213;28;20201;-63
2022/06/20 04:26:37;;;;;;;4.32;1.55;;;;;;;;;;5008004;28;20229;-63
2022/06/20 04:29:09;;;;;;;1.50;1.20;;;;;;;;;;5007807;28;20241;-63
2022/06/20 04:31:41;;;;;;;4.53;1.10;;;;;;;;;;5007195;28;20232;-63
2022/06/20 04:34:12;;;;;;;1.00;1.00;;;;;;;;;;5005506;28;20213;-63
2022/06/20 04:36:41;;;;;;;2.58;1.65;;;;;;;;;;5008268;28;20227;-63
2022/06/20 04:39:14;;;;;;;1.00;1.00;;;;;;;;;;5007522;28;20213;-64
2022/06/20 04:41:43;;;;;;;1.02;1.02;;;;;;;;;;5004379;28;20228;-64
2022/06/20 04:44:13;;;;;;;1.15;1.00;;;;;;;;;;5005329;28;20200;-64
2022/06/20 04:46:44;;;;;;;4.43;1.05;;;;;;;;;;5007772;28;20209;-64
2022/06/20 04:49:14;;;;;;;1.08;1.00;;;;;;;;;;5007448;28;20663;-65
2022/06/20 04:51:41;;;;;;;2.20;1.30;;;;;;;;;;5005515;28;20225;-67
2022/06/20 04:54:13;;;;;;;1.10;1.10;;;;;;;;;;5005553;28;20197;-67
2022/06/20 04:56:40;;;;;;;3.20;1.17;;;;;;;;;;5005121;28;20202;-67
2022/06/20 04:59:10;;;;;;;1.33;1.23;;;;;;;;;;5007211;28;20209;-66
2022/06/20 05:01:38;;;;;;;2.63;1.13;;;;;;;;;;5007979;28;20267;-67
2022/06/20 05:04:08;;;;;;;2.50;1.00;;;;;;;;;;5006748;28;20324;-66
2022/06/20 05:06:38;;;;;;;2.00;1.08;;;;;;;;;;5007254;28;20209;-67
2022/06/20 05:09:08;;;;;;;1.38;1.38;;;;;;;;;;5005146;28;20205;-67
2022/06/20 05:11:37;;;;;;;3.03;1.23;;;;;;;;;;5006780;28;20236;-66
2022/06/20 05:14:06;;;;;;;0.90;0.90;;;;;;;;;;5006510;28;20223;-66
2022/06/20 05:16:34;;;;;;;1.00;1.00;;;;;;;;;;5008051;28;20213;-66
2022/06/20 05:19:05;;;;;;;1.00;1.00;;;;;;;;;;5008988;28;20217;-67
2022/06/20 05:21:38;;;;;;;1.35;1.02;;;;;;;;;;5006043;28;20228;-67
2022/06/20 05:24:07;;;;;;;3.13;1.00;;;;;;;;;;5012351;28;20626;-66
2022/06/20 05:26:37;;;;;;;3.55;1.00;;;;;;;;;;5005402;28;20245;-66
2022/06/20 05:29:05;;;;;;;1.55;1.25;;;;;;;;;;5011122;28;20240;-66
2022/06/20 05:31:34;;;;;;;3.28;1.20;;;;;;;;;;5011669;28;20224;-66
2022/06/20 05:34:04;;;;;;;1.27;1.20;;;;;;;;;;5010474;28;20213;-67
2022/06/20 05:36:32;;;;;;;4.03;1.50;;;;;;;;;;5017015;28;20205;-66
2022/06/20 05:39:03;;;;;;;1.45;1.35;;;;;;;;;;5011466;28;20201;-66
2022/06/20 05:41:30;;;;;;;1.10;1.10;;;;;;;;;;5012013;28;20213;-67
2022/06/20 05:43:59;;;;;;;1.73;1.02;;;;;;;;;;5010333;28;20217;-66
2022/06/20 05:46:28;;;;;;;2.70;1.10;;;;;;;;;;5011630;28;20295;-67
2022/06/20 05:48:56;;;;;;;1.30;1.10;;;;;;;;;;5030873;28;20251;-66
2022/06/20 05:51:25;;;;;;;3.40;2.05;;;;;;;;;;5012176;28;20232;-66
2022/06/20 05:53:54;;;;;;;1.20;1.10;;;;;;;;;;5008271;28;20216;-66
2022/06/20 05:56:25;;;;;;;1.33;1.15;;;;;;;;;;5011525;28;20235;-67
2022/06/20 05:58:53;;;;;;;1.38;1.30;;;;;;;;;;5016456;28;20262;-67
2022/06/20 06:01:22;;;;;;;1.75;1.08;;;;;;;;;;5031103;28;20219;-67
2022/06/20 06:03:53;;;;;;;2.05;1.40;;;;;;;;;;5031100;28;20701;-67
2022/06/20 06:06:22;;;;;;;1.10;1.10;;;;;;;;;;5031195;28;20618;-68
2022/06/20 06:08:51;;;;;;;5.25;1.52;;;;;;;;;;5031095;28;20270;-67
2022/06/20 06:11:22;;;;;;;1.75;1.10;;;;;;;;;;5030936;28;20236;-68
2022/06/20 06:13:53;;;;;;;1.40;1.00;;;;;;;;;;5025846;28;20304;-67
2022/06/20 06:19:13;;;;;;;1.95;1.25;;;;;;;;;;5011286;28;20777;-68
2022/06/20 06:21:40;;;;;;;2.60;1.10;;;;;;;;;;5011219;28;20212;-67
2022/06/20 06:24:08;;;;;;;5.63;1.73;;;;;;;;;;5011065;28;20267;-67
2022/06/20 06:26:36;;;;;;;1.15;0.90;;;;;;;;;;5011017;28;20236;-67
2022/06/20 06:29:05;;;;;;;1.58;1.48;;;;;;;;;;5010643;28;20267;-67
2022/06/20 06:31:35;;;;;;;1.20;1.10;;;;;;;;;;5009987;28;20228;-66
2022/06/20 06:34:05;;;;;;;2.75;1.30;;;;;;;;;;5008943;28;20259;-64
2022/06/20 06:36:34;;;;;;;3.28;1.30;;;;;;;;;;5009993;28;20572;-64
2022/06/20 06:39:03;;;;;;;3.83;1.38;;;;;;;;;;5010517;28;20287;-66
2022/06/20 06:41:32;;;;;;;1.67;1.50;;;;;;;;;;5016060;28;20212;-67
2022/06/20 06:44:00;;;;;;;6.13;1.48;;;;;;;;;;5019745;28;20216;-66
2022/06/20 06:46:33;;;;;;;4.22;1.95;;;;;;;;;;5028827;28;20551;-66
2022/06/20 06:49:10;;;;;;;2.92;1.60;;;;;;;;;;5030153;28;20303;-65
2022/06/20 06:51:39;;;;;;;2.63;1.33;;;;;;;;;;5030249;28;20724;-66
2022/06/20 06:54:12;;;;;;;3.53;1.50;;;;;;;;;;5028092;28;20674;-65
2022/06/20 06:56:42;;;;;;;3.80;1.42;;;;;;;;;;5010522;28;20307;-66
2022/06/20 06:59:12;;;;;;;2.83;1.48;;;;;;;;;;5010358;28;20694;-66
2022/06/20 07:01:43;;;;;;;1.45;1.33;;;;;;;;;;5010507;28;20671;-66
2022/06/20 07:04:14;;;;;;;2.92;2.03;;;;;;;;;;5009952;28;20299;-66
2022/06/20 07:06:42;;;;;;;1.58;1.58;;;;;;;;;;5009804;28;20675;-66
2022/06/20 07:09:14;;;;;;;4.75;1.50;;;;;;;;;;5009745;28;20205;-67
2022/06/20 07:11:43;;;;;;;1.95;1.75;;;;;;;;;;5009567;28;20241;-66
2022/06/20 07:14:15;;;;;;;7.85;1.80;;;;;;;;;;5009218;28;20216;-66
2022/06/20 07:16:47;;;;;;;1.38;1.38;;;;;;;;;;5009745;28;20220;-66
2022/06/20 07:19:14;;;;;;;4.45;1.75;;;;;;;;;;5009375;28;20286;-67
2022/06/20 07:21:43;;;;;;;2.15;2.00;;;;;;;;;;5009280;28;20579;-65
2022/06/20 07:24:13;;;;;;;1.90;1.80;;;;;;;;;;5009457;28;20209;-66
2022/06/20 07:26:43;;;;;;;2.67;1.77;;;;;;;;;;5009308;28;20237;-66
2022/06/20 07:29:13;;;;;;;3.90;1.40;;;;;;;;;;5009140;28;20236;-65
2022/06/20 07:31:43;;;;;;;1.83;1.55;;;;;;;;;;5009326;28;20675;-65
2022/06/20 07:34:13;;;;;;;2.20;2.00;;;;;;;;;;5009358;28;20270;-66
2022/06/20 07:36:44;;;;;;;1.60;1.33;;;;;;;;;;5009283;28;20216;-66
2022/06/20 07:39:14;;;;;;;6.20;1.60;;;;;;;;;;5009234;28;20223;-66
2022/06/20 07:41:44;;;;;;;4.15;2.00;;;;;;;;;;5009061;28;20209;-66
2022/06/20 07:44:17;;;;;;;3.65;1.95;;;;;;;;;;5009157;28;20215;-67
2022/06/20 07:46:46;;;;;;;3.47;1.83;;;;;;;;;;5009636;28;20621;-67
2022/06/20 07:49:17;;;;;;;1.60;1.58;;;;;;;;;;5025722;28;20207;-66
2022/06/20 07:51:46;;;;;;;6.03;1.70;;;;;;;;;;5022446;28;20229;-63
2022/06/20 07:54:15;;;;;;;2.00;1.90;;;;;;;;;;5008262;28;20205;-63
2022/06/20 07:56:45;;;;;;;6.93;2.00;;;;;;;;;;5007401;28;20209;-64
2022/06/20 07:59:16;;;;;;;1.92;1.83;;;;;;;;;;5009070;28;20209;-61
2022/06/20 08:01:46;;;;;;;6.00;1.73;;;;;;;;;;5008511;28;20224;-64
2022/06/20 08:04:17;;;;;;;1.55;1.55;;;;;;;;;;5009125;28;20213;-64
2022/06/20 08:06:46;;;;;;;2.20;1.70;;;;;;;;;;5007343;28;20231;-68
2022/06/20 08:09:17;;;;;;;3.70;2.13;;;;;;;;;;5007566;28;20208;-67
2022/06/20 08:11:46;;;;;;;1.80;1.80;;;;;;;;;;5008707;28;20647;-68
2022/06/20 08:14:22;;;;;;;3.20;1.83;;;;;;;;;;5008563;28;20209;-62
2022/06/20 08:16:50;;;;;;;2.10;2.00;;;;;;;;;;5007349;28;20275;-64
2022/06/20 08:19:18;;;;;;;3.90;1.90;;;;;;;;;;5008848;28;20827;-65
2022/06/20 08:21:47;;;;;;;2.30;2.03;;;;;;;;;;5022180;28;20201;-73
2022/06/20 08:24:17;;;;;;;2.33;2.13;;;;;;;;;;5008599;28;20213;-60
2022/06/20 08:26:46;;;;;;;2.38;1.98;;;;;;;;;;5007526;28;20233;-61
2022/06/20 08:29:15;;;;;;;1.75;1.63;;;;;;;;;;5007195;28;20259;-61
2022/06/20 08:31:46;;;;;;;1.48;1.35;;;;;;;;;;5006869;28;20730;-61
2022/06/20 08:34:16;;;;;;;6.07;1.40;;;;;;;;;;5006315;28;20205;-61
2022/06/20 08:36:47;;;;;;;1.88;1.00;;;;;;;;;;5008872;28;20213;-61
2022/06/20 08:39:30;;;;;;;2.42;0.90;;;;;;;;;;5008404;28;20205;-61
2022/06/20 08:42:21;;;;;;;2.00;0.80;;;;;;;;;;5008729;28;20667;-61
2022/06/20 08:44:57;;;;;;;2.70;0.80;;;;;;;;;;5008194;28;20691;-60
2022/06/20 08:47:42;;;;;;;0.70;0.70;;;;;;;;;;5008636;28;20216;-60
2022/06/20 08:50:28;;;;;;;1.13;0.40;;;;;;;;;;5008682;28;20594;-63
2022/06/20 08:53:13;;;;;;;0.57;0.57;;;;;;;;;;5008408;28;20323;-62
2022/06/20 08:55:47;;;;;;;0.60;0.60;;;;;;;;;;5012355;28;20209;-63
2022/06/20 08:58:19;;;;;;;0.50;0.50;;;;;;;;;;5012117;28;20220;-63
2022/06/20 09:00:49;;;;;;;0.50;0.45;;;;;;;;;;5011922;28;20213;-63
2022/06/20 09:03:34;;;;;;;1.48;0.45;;;;;;;;;;5011884;28;20627;-64
2022/06/20 09:06:12;;;;;;;0.40;0.40;;;;;;;;;;5011304;28;20718;-63
2022/06/20 09:08:48;;;;;;;0.35;0.35;;;;;;;;;;5011402;28;20219;-65
2022/06/20 09:11:24;;;;;;;0.47;0.47;;;;;;;;;;5010983;28;20243;-65
2022/06/20 09:14:03;;;;;;;0.30;0.30;;;;;;;;;;5010962;28;20212;-63
2022/06/20 09:16:35;;;;;;;0.57;0.57;;;;;;;;;;5011131;28;20242;-62
2022/06/20 09:19:09;;;;;;;0.40;0.40;;;;;;;;;;5011019;28;20213;-63
2022/06/20 09:21:40;;;;;;;0.70;0.40;;;;;;;;;;5011331;28;20209;-63
2022/06/20 09:24:16;;;;;;;0.40;0.40;;;;;;;;;;5011476;28;20208;-63
2022/06/20 09:26:48;;;;;;;1.88;0.50;;;;;;;;;;5011087;28;20638;-64
2022/06/20 09:29:23;;;;;;;1.42;0.50;;;;;;;;;;5010994;28;20213;-64
2022/06/20 09:32:08;;;;;;;0.40;0.40;;;;;;;;;;5011122;28;20319;-64
2022/06/20 09:34:50;;;;;;;0.50;0.50;;;;;;;;;;5010778;28;20217;-64
2022/06/20 09:37:42;;;;;;;0.50;0.50;;;;;;;;;;5010765;28;20733;-64
2022/06/20 09:40:17;;;;;;;0.73;0.73;;;;;;;;;;5011052;28;20837;-64
2022/06/20 09:42:46;;;;;;;0.60;0.60;;;;;;;;;;5010630;28;20358;-64
2022/06/20 09:45:19;;;;;;;0.40;0.40;;;;;;;;;;5010179;28;20675;-65
2022/06/20 09:47:52;;;;;;;0.63;0.50;;;;;;;;;;5010521;28;20212;-64
2022/06/20 09:50:25;;;;;;;0.40;0.40;;;;;;;;;;5011136;28;20303;-64
2022/06/20 09:53:02;;;;;;;0.40;0.40;;;;;;;;;;5011153;28;20229;-64
2022/06/20 09:55:33;;;;;;;0.40;0.40;;;;;;;;;;5011220;28;20216;-64
2022/06/20 09:58:05;;;;;;;0.32;0.32;;;;;;;;;;5011039;28;20216;-64
2022/06/20 10:00:35;;;;;;;0.80;0.75;;;;;;;;;;5010740;28;20361;-64
2022/06/20 10:03:06;;;;;;;0.60;0.60;;;;;;;;;;5010649;28;20215;-63
2022/06/20 10:05:36;;;;;;;0.70;0.70;;;;;;;;;;5009746;28;20216;-64
2022/06/20 10:08:07;;;;;;;0.85;0.85;;;;;;;;;;5010691;28;20197;-64
2022/06/20 10:10:39;;;;;;;0.85;0.85;;;;;;;;;;5011184;28;20592;-64
2022/06/20 10:13:12;;;;;;;0.73;0.73;;;;;;;;;;5010585;28;20574;-64
2022/06/20 10:15:41;;;;;;;1.00;1.00;;;;;;;;;;4991673;28;20214;-64
2022/06/20 10:18:14;;;;;;;0.90;0.90;;;;;;;;;;5002162;28;20256;-63
2022/06/20 10:20:44;;;;;;;1.10;1.10;;;;;;;;;;5010986;28;20205;-82
2022/06/20 10:23:17;;;;;;;1.30;1.30;;;;;;;;;;5009753;28;20209;-63
2022/06/20 10:25:52;;;;;;;1.10;1.10;;;;;;;;;;5010485;28;20275;-63
2022/06/20 10:28:24;;;;;;;1.45;1.30;;;;;;;;;;5001645;28;20257;-63
2022/06/20 10:30:55;;;;;;;1.20;1.20;;;;;;;;;;5009482;28;20690;-63
2022/06/20 10:33:28;;;;;;;1.23;1.23;;;;;;;;;;4991936;28;20237;-63
2022/06/20 10:35:58;;;;;;;1.20;1.20;;;;;;;;;;5010742;28;20213;-63
2022/06/20 10:38:29;;;;;;;1.05;1.05;;;;;;;;;;5010738;28;20259;-63
2022/06/20 10:41:03;;;;;;;1.10;1.10;;;;;;;;;;5010630;28;20215;-63
2022/06/20 10:43:35;;;;;;;0.98;0.98;;;;;;;;;;4993037;28;20235;-63
2022/06/20 10:46:08;;;;;;;0.82;0.82;;;;;;;;;;5010006;28;20212;-64
2022/06/20 10:48:59;;;;;;;1.23;1.00;;;;;;;;;;4990670;28;20213;-64
2022/06/20 10:51:32;;;;;;;0.88;0.88;;;;;;;;;;4993646;28;20213;-64
2022/06/20 10:54:04;;;;;;;0.60;0.60;;;;;;;;;;5010104;28;20216;-64
2022/06/20 10:56:37;;;;;;;0.52;0.40;;;;;;;;;;5006174;28;20698;-67
2022/06/20 10:59:10;;;;;;;0.40;0.40;;;;;;;;;;5009529;28;20637;-68
2022/06/20 11:01:40;;;;;;;0.60;0.60;;;;;;;;;;5013029;28;20216;-68
2022/06/20 11:04:16;;;;;;;0.70;0.70;;;;;;;;;;5020095;28;20670;-67
2022/06/20 11:06:48;;;;;;;0.65;0.65;;;;;;;;;;5019491;28;20200;-61
2022/06/20 11:09:21;;;;;;;1.10;0.80;;;;;;;;;;5011937;28;20258;-62
2022/06/20 11:11:51;;;;;;;0.80;0.80;;;;;;;;;;5008798;28;20290;-61
2022/06/20 11:14:24;;;;;;;0.68;0.63;;;;;;;;;;5009429;28;20815;-62
2022/06/20 11:16:56;;;;;;;0.65;0.65;;;;;;;;;;5009276;28;20216;-62
2022/06/20 11:19:28;;;;;;;0.60;0.60;;;;;;;;;;5009510;28;20216;-61
2022/06/20 11:22:00;;;;;;;1.42;0.63;;;;;;;;;;5009525;28;20205;-61
2022/06/20 11:24:38;;;;;;;0.40;0.30;;;;;;;;;;5009880;28;20221;-63
2022/06/20 11:27:14;;;;;;;0.50;0.50;;;;;;;;;;5008965;28;20247;-62
2022/06/20 11:29:50;;;;;;;0.50;0.50;;;;;;;;;;5003364;28;20650;-62
2022/06/20 11:32:23;;;;;;;0.40;0.40;;;;;;;;;;5008848;28;20259;-69
2022/06/20 11:35:03;;;;;;;0.60;0.60;;;;;;;;;;5018362;28;20239;-68
2022/06/20 11:37:40;;;;;;;0.50;0.50;;;;;;;;;;5010382;28;20216;-67
2022/06/20 11:40:13;;;;;;;0.50;0.50;;;;;;;;;;5007991;28;20279;-68
2022/06/20 11:43:00;;;;;;;1.20;0.60;;;;;;;;;;5008281;28;20572;-68
2022/06/20 11:45:35;;;;;;;0.40;0.40;;;;;;;;;;5008528;28;20618;-67
2022/06/20 11:48:23;;;;;;;0.93;0.40;;;;;;;;;;5007279;28;20250;-68
2022/06/20 11:50:55;;;;;;;0.47;0.47;;;;;;;;;;5008737;28;20240;-68
2022/06/20 11:53:35;;;;;;;0.30;0.30;;;;;;;;;;5008210;28;20221;-68
2022/06/20 11:56:05;;;;;;;0.30;0.30;;;;;;;;;;5008569;28;20209;-67
2022/06/20 11:58:37;;;;;;;0.50;0.50;;;;;;;;;;5007025;28;20201;-67
2022/06/20 12:01:08;;;;;;;0.43;0.43;;;;;;;;;;5008347;28;20208;-68
2022/06/20 12:03:38;;;;;;;0.32;0.32;;;;;;;;;;5007925;28;20201;-62
2022/06/20 12:06:08;;;;;;;0.30;0.30;;;;;;;;;;5007760;28;20255;-62
2022/06/20 12:08:43;;;;;;;0.32;0.32;;;;;;;;;;5008372;28;20205;-63
2022/06/20 12:11:15;;;;;;;0.50;0.50;;;;;;;;;;4989326;28;20308;-62
2022/06/20 12:13:47;;;;;;;0.30;0.30;;;;;;;;;;5005402;28;20240;-63
2022/06/20 12:16:21;;;;;;;0.30;0.30;;;;;;;;;;5007743;28;20279;-63
2022/06/20 12:24:20;;;;;;;0.20;0.20;;;;;;;;;;5002813;28;20207;-61
2022/06/20 12:26:49;;;;;;;0.85;0.30;;;;;;;;;;5004495;28;20222;-62
2022/06/20 12:29:20;;;;;;;0.20;0.20;;;;;;;;;;5013944;28;20311;-62
2022/06/20 12:31:49;;;;;;;0.22;0.22;;;;;;;;;;5012323;28;20201;-62
2022/06/20 12:34:23;;;;;;;0.93;0.30;;;;;;;;;;5011541;28;20231;-62
2022/06/20 12:36:55;;;;;;;0.40;0.40;;;;;;;;;;5014012;28;20213;-62
2022/06/20 12:39:25;;;;;;;0.32;0.30;;;;;;;;;;5011634;28;20688;-62
2022/06/20 12:41:56;;;;;;;0.30;0.30;;;;;;;;;;5011659;28;20205;-61
2022/06/20 12:44:32;;;;;;;0.20;0.20;;;;;;;;;;5010031;28;20868;-61
2022/06/20 12:47:14;;;;;;;1.35;0.28;;;;;;;;;;5001063;28;20266;-61
2022/06/20 12:49:46;;;;;;;0.25;0.25;;;;;;;;;;4989388;28;20333;-62
2022/06/20 12:52:17;;;;;;;0.30;0.30;;;;;;;;;;5010066;28;20764;-61
2022/06/20 12:54:58;;;;;;;0.30;0.30;;;;;;;;;;5011348;28;20605;-61
2022/06/20 12:57:47;;;;;;;0.25;0.25;;;;;;;;;;5012298;28;20220;-61
2022/06/20 13:00:26;;;;;;;0.13;0.13;;;;;;;;;;5004741;28;20213;-61
2022/06/20 13:03:12;;;;;;;0.22;0.22;;;;;;;;;;5012043;28;20307;-61
2022/06/20 13:05:49;;;;;;;2.33;0.10;;;;;;;;;;5012323;28;20211;-61
2022/06/20 13:08:25;;;;;;;0.20;0.20;;;;;;;;;;5003060;28;20740;-61
2022/06/20 13:10:58;;;;;;;0.20;0.20;;;;;;;;;;5012219;28;20201;-62
2022/06/20 13:13:35;;;;;;;0.10;0.10;;;;;;;;;;5005435;28;20695;-62
2022/06/20 13:16:06;;;;;;;0.10;0.10;;;;;;;;;;5011682;28;20259;-61
2022/06/20 13:18:50;;;;;;;0.90;0.30;;;;;;;;;;5011616;28;20204;-61
2022/06/20 13:21:20;;;;;;;0.52;0.30;;;;;;;;;;5001700;28;20204;-61
2022/06/20 13:24:05;;;;;;;0.10;0.10;;;;;;;;;;5011892;28;20198;-61
2022/06/20 13:26:35;;;;;;;0.30;0.30;;;;;;;;;;5007494;28;20500;-60
2022/06/20 13:29:11;;;;;;;0.10;0.10;;;;;;;;;;5010699;28;20315;-63
2022/06/20 13:31:42;;;;;;;0.20;0.20;;;;;;;;;;4999282;28;20586;-63
2022/06/20 13:34:15;;;;;;;0.40;0.40;;;;;;;;;;5006817;28;20347;-63
2022/06/20 13:36:47;;;;;;;0.10;0.10;;;;;;;;;;5003432;28;20217;-63
2022/06/20 13:39:19;;;;;;;0.20;0.20;;;;;;;;;;5004749;28;20209;-61
2022/06/20 13:41:48;;;;;;;0.20;0.20;;;;;;;;;;5002435;28;20220;-60
2022/06/20 13:44:26;;;;;;;0.25;0.25;;;;;;;;;;5007021;28;20219;-61
2022/06/20 13:46:57;;;;;;;0.20;0.20;;;;;;;;;;5007161;28;20621;-61
2022/06/20 13:49:27;;;;;;;0.38;0.30;;;;;;;;;;5007434;28;20219;-61
2022/06/20 13:51:57;;;;;;;0.10;0.10;;;;;;;;;;5021317;28;20217;-60
2022/06/20 13:54:26;;;;;;;0.50;0.40;;;;;;;;;;5009390;28;20232;-60
2022/06/20 13:56:58;;;;;;;0.30;0.30;;;;;;;;;;5005070;28;20309;-60
2022/06/20 13:59:28;;;;;;;0.38;0.30;;;;;;;;;;5007120;28;20205;-60
2022/06/20 14:01:58;;;;;;;0.20;0.20;;;;;;;;;;5006182;28;20209;-60
2022/06/20 14:04:28;;;;;;;0.20;0.20;;;;;;;;;;5006281;28;20299;-60
2022/06/20 14:06:56;;;;;;;0.35;0.30;;;;;;;;;;5007517;28;21057;-59
2022/06/20 14:09:26;;;;;;;0.20;0.20;;;;;;;;;;4995134;28;20221;-59
2022/06/20 14:11:58;;;;;;;0.55;0.25;;;;;;;;;;5006722;28;20224;-64
2022/06/20 14:14:27;;;;;;;0.43;0.40;;;;;;;;;;5005909;28;20228;-65
2022/06/20 14:16:56;;;;;;;3.10;0.30;;;;;;;;;;5005723;28;20766;-61
2022/06/20 14:19:26;;;;;;;0.30;0.30;;;;;;;;;;5013607;28;20243;-61
2022/06/20 14:21:55;;;;;;;0.30;0.30;;;;;;;;;;5014648;28;20209;-61
2022/06/20 14:24:24;;;;;;;0.43;0.40;;;;;;;;;;5016273;28;20331;-61
2022/06/20 14:26:58;;;;;;;1.65;0.38;;;;;;;;;;5014529;28;20231;-61
2022/06/20 14:29:26;;;;;;;0.30;0.30;;;;;;;;;;5011995;28;20212;-61
2022/06/20 14:31:56;;;;;;;0.30;0.30;;;;;;;;;;5013987;28;20666;-60
2022/06/20 14:34:26;;;;;;;2.08;0.55;;;;;;;;;;5013010;28;20243;-61
2022/06/20 14:36:57;;;;;;;0.20;0.20;;;;;;;;;;5016232;28;20204;-61
2022/06/20 14:39:27;;;;;;;0.20;0.20;;;;;;;;;;5010022;28;20267;-61
2022/06/20 14:41:58;;;;;;;0.20;0.20;;;;;;;;;;5004265;28;20205;-61
2022/06/20 14:44:30;;;;;;;0.95;0.30;;;;;;;;;;5013020;28;20209;-60
2022/06/20 14:47:00;;;;;;;0.30;0.30;;;;;;;;;;5014383;28;20622;-60
2022/06/20 14:49:32;;;;;;;0.40;0.40;;;;;;;;;;5015259;28;20263;-60
2022/06/20 14:52:01;;;;;;;0.20;0.20;;;;;;;;;;5011058;28;20207;-61
2022/06/20 14:54:32;;;;;;;0.20;0.20;;;;;;;;;;5013122;28;20232;-60
2022/06/20 14:57:02;;;;;;;1.40;0.40;;;;;;;;;;5012769;28;20662;-60
2022/06/20 14:59:32;;;;;;;0.73;0.30;;;;;;;;;;5013905;28;20204;-60
2022/06/20 15:02:02;;;;;;;0.30;0.30;;;;;;;;;;5009093;28;20230;-60
2022/06/20 15:04:33;;;;;;;2.47;0.63;;;;;;;;;;5014592;28;20205;-61
2022/06/20 15:07:14;;;;;;;1.10;0.40;;;;;;;;;;5011548;28;20208;-60
2022/06/20 15:09:43;;;;;;;0.30;0.30;;;;;;;;;;5016014;28;20212;-60
2022/06/20 15:12:15;;;;;;;1.23;0.82;;;;;;;;;;5010877;28;20208;-60
2022/06/20 15:14:44;;;;;;;0.40;0.40;;;;;;;;;;5011600;28;20645;-61
2022/06/20 15:17:14;;;;;;;0.60;0.55;;;;;;;;;;5014561;28;20209;-61
2022/06/20 15:19:45;;;;;;;0.85;0.50;;;;;;;;;;5014238;28;20212;-61